createdAt,value
2019-04-21T04:45:44.497Z,13.10
2019-04-21T04:48:10.906Z,13.00
2019-04-21T04:51:25.202Z,13.00
2019-04-21T04:53:44.311Z,12.80
2019-04-21T04:56:30.674Z,12.70
2019-04-21T05:02:15.254Z,12.80
2019-04-21T05:08:39.602Z,12.80
2019-04-21T05:10:07.370Z,12.90
2019-04-21T05:12:44.214Z,12.80
2019-04-21T05:15:23.922Z,13.00
2019-04-21T05:18:35.163Z,13.10
2019-04-21T05:21:07.422Z,13.00
2019-04-21T05:23:22.973Z,13.10
2019-04-21T05:29:49.537Z,13.10
2019-04-21T05:32:58.372Z,13.10
2019-04-21T05:35:57.292Z,13.20
2019-04-21T05:38:57.011Z,13.40
2019-04-21T05:41:34.836Z,13.40
2019-04-21T05:44:35.450Z,13.40
2019-04-21T05:52:56.889Z,13.60
2019-04-21T05:55:57.130Z,13.70
2019-04-21T05:58:44.928Z,13.80
2019-04-21T06:01:33.026Z,13.80
2019-04-21T06:04:20.487Z,13.60
2019-04-21T06:07:02.234Z,13.70
2019-04-21T06:09:48.893Z,13.80
2019-04-21T06:12:23.796Z,14.00
2019-04-21T06:15:22.846Z,14.00
2019-04-21T06:17:54.394Z,14.10
2019-04-21T06:20:34.952Z,14.10
2019-04-21T06:23:19.096Z,14.30
2019-04-21T06:26:19.738Z,14.40
2019-04-21T06:29:09.117Z,14.40
2019-04-21T06:32:05.571Z,14.50
2019-04-21T06:34:24.941Z,14.60
2019-04-21T06:40:38.657Z,14.90
2019-04-21T06:43:26.990Z,15.10
2019-04-21T06:46:17.814Z,15.10
2019-04-21T06:48:49.778Z,15.30
2019-04-21T06:51:32.321Z,15.40
2019-04-21T06:54:17.426Z,15.60
2019-04-21T06:56:58.448Z,15.60
2019-04-21T06:59:38.459Z,15.70
2019-04-21T07:05:15.777Z,16.00
2019-04-21T07:08:09.256Z,16.10
2019-04-21T07:10:39.298Z,16.20
2019-04-21T07:13:22.361Z,16.40
2019-04-21T07:16:13.894Z,16.40
2019-04-21T07:19:01.146Z,16.60
2019-04-21T07:21:33.880Z,16.70
2019-04-21T07:24:30.430Z,16.90
2019-04-21T07:27:02.350Z,17.00
2019-04-21T07:32:33.735Z,17.20
2019-04-21T07:35:17.846Z,17.30
2019-04-21T07:38:01.263Z,17.40
2019-04-21T07:40:33.404Z,17.50
2019-04-21T07:43:20.590Z,17.60
2019-04-21T07:46:03.979Z,17.70
2019-04-21T07:48:58.554Z,17.80
2019-04-21T07:51:49.057Z,17.90
2019-04-21T07:54:44.529Z,18.00
2019-04-21T07:57:15.951Z,18.10
2019-04-21T08:00:16.453Z,18.20
2019-04-21T08:02:49.590Z,18.20
2019-04-21T08:05:31.336Z,18.30
2019-04-21T08:08:14.226Z,18.40
2019-04-21T08:10:56.778Z,18.40
2019-04-21T08:13:48.551Z,18.50
2019-04-21T08:16:30.640Z,18.60
2019-04-21T08:19:15.582Z,18.70
2019-04-21T08:22:00.103Z,18.80
2019-04-21T08:24:43.270Z,18.90
2019-04-21T08:27:30.262Z,18.90
2019-04-21T08:30:04.826Z,19.00
2019-04-21T08:38:20.354Z,19.20
2019-04-21T08:41:03.590Z,19.30
2019-04-21T08:43:48.225Z,19.30
2019-04-21T08:46:31.064Z,19.40
2019-04-21T08:49:15.825Z,19.50
2019-04-21T08:52:00.719Z,19.60
2019-04-21T08:54:43.516Z,19.60
2019-04-21T09:00:51.425Z,19.80
2019-04-21T09:03:52.025Z,19.80
2019-04-21T09:06:42.060Z,19.90
2019-04-21T09:09:18.087Z,19.90
2019-04-21T09:12:01.620Z,19.90
2019-04-21T09:14:50.680Z,20.00
2019-04-21T09:17:25.192Z,20.00
2019-04-21T09:20:16.910Z,20.10
2019-04-21T09:22:54.251Z,20.20
2019-04-21T09:28:19.872Z,20.40
2019-04-21T09:30:55.932Z,20.40
2019-04-21T09:33:41.306Z,20.50
2019-04-21T09:36:22.106Z,20.50
2019-04-21T09:39:11.279Z,20.60
2019-04-21T09:41:53.666Z,20.60
2019-04-21T09:44:38.600Z,20.70
2019-04-21T09:47:23.443Z,20.80
2019-04-21T09:50:06.637Z,20.80
2019-04-21T09:52:54.496Z,21.00
2019-04-21T09:55:43.001Z,21.10
2019-04-21T09:58:23.961Z,21.40
2019-04-21T10:01:08.442Z,21.70
2019-04-21T10:03:48.261Z,21.90
2019-04-21T10:06:28.453Z,22.20
2019-04-21T10:09:14.438Z,22.40
2019-04-21T10:11:54.858Z,22.70
2019-04-21T10:14:36.629Z,22.80
2019-04-21T10:17:21.765Z,23.10
2019-04-21T10:20:05.078Z,23.30
2019-04-21T10:22:46.862Z,23.50
2019-04-21T10:25:28.858Z,23.70
2019-04-21T10:28:12.794Z,23.80
2019-04-21T10:30:56.406Z,24.00
2019-04-21T10:33:38.083Z,24.10
2019-04-21T10:36:20.443Z,24.10
2019-04-21T10:39:04.207Z,24.40
2019-04-21T10:41:47.795Z,24.40
2019-04-21T10:44:31.518Z,24.60
2019-04-21T10:47:16.595Z,24.50
2019-04-21T10:50:00.393Z,24.40
2019-04-21T10:53:02.941Z,24.60
2019-04-21T10:55:59.010Z,24.70
2019-04-21T10:58:52.174Z,24.90
2019-04-21T11:01:36.782Z,25.00
2019-04-21T11:04:29.666Z,25.20
2019-04-21T11:07:45.403Z,25.20
2019-04-21T11:10:23.597Z,25.40
2019-04-21T11:13:05.557Z,25.60
2019-04-21T11:15:57.183Z,25.70
2019-04-21T11:18:40.210Z,26.00
2019-04-21T11:21:22.927Z,26.00
2019-04-21T11:24:05.924Z,26.10
2019-04-21T11:26:51.860Z,26.50
2019-04-21T11:29:33.398Z,26.90
2019-04-21T11:32:16.830Z,27.40
2019-04-21T11:34:49.325Z,27.90
2019-04-21T11:37:37.860Z,28.00
2019-04-21T11:40:21.559Z,28.50
2019-04-21T11:43:05.924Z,28.80
2019-04-21T11:45:48.531Z,28.90
2019-04-21T11:48:32.510Z,29.20
2019-04-21T11:51:15.224Z,29.30
2019-04-21T11:53:59.074Z,29.80
2019-04-21T11:56:43.086Z,30.40
2019-04-21T11:59:25.906Z,30.30
2019-04-21T12:02:09.701Z,30.60
2019-04-21T12:04:57.208Z,30.90
2019-04-21T12:07:40.806Z,31.40
2019-04-21T12:10:23.759Z,31.80
2019-04-21T12:13:07.416Z,32.40
2019-04-21T12:15:50.177Z,32.30
2019-04-21T12:18:33.850Z,32.70
2019-04-21T12:21:15.772Z,32.50
2019-04-21T12:23:58.584Z,32.80
2019-04-21T12:26:53.929Z,33.10
2019-04-21T12:29:37.845Z,33.60
2019-04-21T12:32:40.131Z,34.30
2019-04-21T12:35:23.866Z,34.30
2019-04-21T12:38:06.755Z,35.00
2019-04-21T12:40:38.762Z,35.20
2019-04-21T12:44:00.351Z,34.80
2019-04-21T12:46:43.628Z,34.20
2019-04-21T12:49:25.512Z,32.80
2019-04-21T12:52:07.644Z,32.00
2019-04-21T12:54:51.384Z,30.60
2019-04-21T12:57:33.574Z,29.50
2019-04-21T13:00:18.464Z,28.80
2019-04-21T13:03:01.643Z,28.30
2019-04-21T13:05:45.325Z,27.90
2019-04-21T13:08:27.397Z,27.70
2019-04-21T13:11:11.313Z,27.70
2019-04-21T13:13:53.651Z,27.70
2019-04-21T13:16:37.087Z,27.70
2019-04-21T13:19:19.224Z,27.60
2019-04-21T13:22:01.583Z,27.50
2019-04-21T13:24:44.130Z,28.00
2019-04-21T13:27:26.892Z,28.80
2019-04-21T13:30:10.407Z,30.40
2019-04-21T13:32:53.412Z,32.10
2019-04-21T13:35:37.154Z,34.00
2019-04-21T13:38:29.135Z,35.50
2019-04-21T13:44:13.337Z,37.50
2019-04-21T13:47:06.853Z,38.80
2019-04-21T13:49:49.576Z,38.90
2019-04-21T13:52:31.166Z,39.50
2019-04-21T13:55:13.895Z,40.20
2019-04-21T13:57:56.762Z,39.90
2019-04-21T14:00:39.965Z,39.50
2019-04-21T14:03:24.724Z,40.20
2019-04-21T14:06:06.630Z,39.90
2019-04-21T14:09:09.726Z,40.20
2019-04-21T14:11:55.095Z,41.20
2019-04-21T14:14:36.859Z,41.60
2019-04-21T14:17:07.211Z,41.80
2019-04-21T14:19:49.143Z,41.20
2019-04-21T14:22:31.803Z,40.60
2019-04-21T14:25:15.293Z,39.50
2019-04-21T14:27:57.879Z,38.30
2019-04-21T14:30:41.174Z,37.10
2019-04-21T14:33:23.763Z,36.20
2019-04-21T14:36:06.325Z,35.30
2019-04-21T14:38:48.411Z,35.20
2019-04-21T14:41:30.689Z,35.40
2019-04-21T14:44:13.194Z,35.70
2019-04-21T14:50:22.474Z,39.30
2019-04-21T14:53:23.561Z,39.80
2019-04-21T14:56:07.067Z,40.90
2019-04-21T14:58:50.700Z,41.40
2019-04-21T15:01:33.741Z,42.80
2019-04-21T15:04:17.720Z,43.30
2019-04-21T15:07:01.206Z,43.60
2019-04-21T15:09:44.645Z,44.00
2019-04-21T15:12:27.853Z,44.30
2019-04-21T15:15:09.967Z,44.60
2019-04-21T15:17:51.684Z,44.10
2019-04-21T15:20:34.218Z,43.80
2019-04-21T15:23:17.928Z,43.40
2019-04-21T15:26:01.927Z,43.30
2019-04-21T15:28:44.521Z,43.10
2019-04-21T15:31:30.538Z,43.40
2019-04-21T15:34:13.023Z,41.60
2019-04-21T15:36:55.619Z,39.40
2019-04-21T15:39:38.420Z,37.30
2019-04-21T15:42:21.048Z,35.20
2019-04-21T15:45:03.073Z,33.90
2019-04-21T15:47:46.153Z,32.70
2019-04-21T15:50:28.426Z,31.90
2019-04-21T15:53:11.926Z,31.20
2019-04-21T15:56:13.366Z,30.70
2019-04-21T16:02:14.959Z,30.10
2019-04-21T16:04:56.832Z,29.70
2019-04-21T16:07:40.221Z,29.30
2019-04-21T16:10:34.653Z,29.10
2019-04-21T16:13:05.893Z,28.80
2019-04-21T16:15:48.422Z,28.70
2019-04-21T16:18:30.441Z,28.50
2019-04-21T16:21:02.082Z,28.20
2019-04-21T16:24:12.268Z,28.10
2019-04-21T16:27:04.601Z,27.90
2019-04-21T16:29:44.213Z,27.90
2019-04-21T16:32:26.160Z,27.60
2019-04-21T16:35:11.162Z,27.40
2019-04-21T16:37:55.288Z,27.10
2019-04-21T16:40:45.386Z,27.00
2019-04-21T16:43:20.000Z,27.00
2019-04-21T16:46:01.645Z,26.90
2019-04-21T16:48:44.206Z,26.90
2019-04-21T16:51:24.777Z,26.90
2019-04-21T16:57:30.837Z,26.60
2019-04-21T17:00:29.102Z,26.40
2019-04-21T17:03:08.328Z,26.40
2019-04-21T17:05:50.243Z,26.30
2019-04-21T17:08:33.790Z,26.20
2019-04-21T17:11:20.697Z,26.10
2019-04-21T17:14:00.653Z,26.00
2019-04-21T17:17:03.247Z,25.90
2019-04-21T17:19:29.830Z,25.90
2019-04-21T17:22:09.896Z,25.80
2019-04-21T17:24:52.658Z,25.70
2019-04-21T17:27:35.496Z,25.60
2019-04-21T17:30:19.181Z,25.50
2019-04-21T17:33:01.436Z,25.30
2019-04-21T17:35:44.904Z,25.30
2019-04-21T17:38:28.013Z,25.30
2019-04-21T17:41:21.871Z,25.20
2019-04-21T17:43:53.919Z,25.20
2019-04-21T17:46:44.050Z,25.10
2019-04-21T17:49:21.204Z,25.10
2019-04-21T17:52:30.626Z,25.00
2019-04-21T17:55:27.507Z,24.90
2019-04-21T17:58:16.295Z,24.80
2019-04-21T18:04:01.411Z,24.60
2019-04-21T18:06:36.907Z,24.50
2019-04-21T18:09:18.278Z,24.30
2019-04-21T18:12:16.718Z,24.20
2019-04-21T18:15:02.421Z,24.10
2019-04-21T18:17:36.542Z,24.00
2019-04-21T18:20:23.961Z,24.00
2019-04-21T18:23:34.893Z,23.80
2019-04-21T18:26:23.215Z,23.80
2019-04-21T18:28:53.839Z,23.70
2019-04-21T18:31:42.709Z,23.70
2019-04-21T18:34:52.603Z,23.50
2019-04-21T18:38:10.129Z,23.40
2019-04-21T18:40:42.839Z,23.20
2019-04-21T18:44:02.891Z,23.10
2019-04-21T18:46:39.790Z,23.00
2019-04-21T18:49:13.302Z,22.80
2019-04-21T18:52:18.137Z,22.60
2019-04-21T18:55:09.463Z,22.60
2019-04-21T18:57:42.797Z,22.50
2019-04-21T19:00:30.711Z,22.40
2019-04-21T19:03:09.946Z,22.40
2019-04-21T19:05:55.212Z,22.30
2019-04-21T19:08:53.637Z,22.20
2019-04-21T19:11:32.860Z,22.10
2019-04-21T19:14:36.275Z,22.10
2019-04-21T19:17:29.215Z,22.00
2019-04-21T19:19:54.638Z,21.90
2019-04-21T19:22:40.097Z,21.80
2019-04-21T19:25:20.914Z,21.70
2019-04-21T19:27:59.089Z,21.70
2019-04-21T19:33:29.628Z,21.50
2019-04-21T19:36:03.432Z,21.40
2019-04-21T19:39:09.345Z,21.30
2019-04-21T19:41:50.975Z,21.30
2019-04-21T19:44:44.901Z,21.20
2019-04-21T19:47:27.851Z,21.20
2019-04-21T19:50:44.935Z,21.10
2019-04-21T19:53:02.824Z,21.00
2019-04-21T19:55:36.477Z,21.00
2019-04-21T19:58:26.319Z,20.90
2019-04-21T20:01:03.559Z,20.80
2019-04-21T20:03:49.860Z,20.70
2019-04-21T20:06:45.570Z,20.70
2019-04-21T20:09:32.469Z,20.60
2019-04-21T20:12:09.385Z,20.50
2019-04-21T20:15:04.842Z,20.40
2019-04-21T20:17:44.979Z,20.40
2019-04-21T20:20:15.162Z,20.10
2019-04-21T20:23:22.752Z,20.10
2019-04-21T20:25:58.560Z,20.10
2019-04-21T20:28:49.191Z,20.00
2019-04-21T20:31:40.955Z,19.90
2019-04-21T20:34:26.880Z,19.90
2019-04-21T20:37:07.685Z,19.80
2019-04-21T20:39:45.254Z,19.70
2019-04-21T20:42:34.599Z,19.70
2019-04-21T20:47:50.420Z,19.50
2019-04-21T20:50:41.937Z,19.40
2019-04-21T20:53:31.305Z,19.40
2019-04-21T20:56:08.550Z,19.30
2019-04-21T20:58:58.417Z,19.10
2019-04-21T21:01:45.733Z,19.00
2019-04-21T21:04:22.994Z,18.90
2019-04-21T21:07:16.280Z,18.80
2019-04-21T21:10:03.111Z,18.70
2019-04-21T21:12:42.778Z,18.50
2019-04-21T21:15:24.619Z,18.30
2019-04-21T21:18:22.822Z,18.30
2019-04-21T21:20:54.088Z,18.50
2019-04-21T21:23:37.786Z,18.50
2019-04-21T21:26:26.905Z,18.60
2019-04-21T21:28:59.815Z,18.50
2019-04-21T21:31:50.539Z,18.50
2019-04-21T21:34:34.513Z,18.40
2019-04-21T21:37:29.279Z,18.30
2019-04-21T21:40:04.062Z,18.30
2019-04-21T21:42:33.829Z,18.20
2019-04-21T21:45:17.875Z,17.90
2019-04-21T21:48:11.241Z,17.80
2019-04-21T21:50:50.938Z,17.90
